sensor_id;sensor_type;location;lat;lon;timestamp;temperature;humidity
47590;DHT22;33316;52.298;9.056;2024-03-17T00:00:32;7.40;95.20
47590;DHT22;33316;52.298;9.056;2024-03-17T00:02:59;7.30;95.20
47590;DHT22;33316;52.298;9.056;2024-03-17T00:05:26;7.30;95.30
47590;DHT22;33316;52.298;9.056;2024-03-17T00:07:54;7.30;95.40
47590;DHT22;33316;52.298;9.056;2024-03-17T00:10:21;7.30;95.50
47590;DHT22;33316;52.298;9.056;2024-03-17T00:12:48;7.30;95.50
47590;DHT22;33316;52.298;9.056;2024-03-17T00:15:14;7.30;95.50
47590;DHT22;33316;52.298;9.056;2024-03-17T00:17:42;7.20;95.50
47590;DHT22;33316;52.298;9.056;2024-03-17T00:20:09;7.20;95.60
47590;DHT22;33316;52.298;9.056;2024-03-17T00:22:45;7.20;95.60
47590;DHT22;33316;52.298;9.056;2024-03-17T00:25:13;7.10;95.60
47590;DHT22;33316;52.298;9.056;2024-03-17T00:27:41;7.10;95.70
47590;DHT22;33316;52.298;9.056;2024-03-17T00:30:10;7.10;95.70
47590;DHT22;33316;52.298;9.056;2024-03-17T00:32:39;7.00;95.70
47590;DHT22;33316;52.298;9.056;2024-03-17T00:35:07;7.00;95.70
47590;DHT22;33316;52.298;9.056;2024-03-17T00:37:34;7.00;95.80
47590;DHT22;33316;52.298;9.056;2024-03-17T00:40:01;7.00;95.80
47590;DHT22;33316;52.298;9.056;2024-03-17T00:42:30;7.00;95.90
47590;DHT22;33316;52.298;9.056;2024-03-17T00:44:57;7.00;95.90
47590;DHT22;33316;52.298;9.056;2024-03-17T00:47:25;6.90;95.90
47590;DHT22;33316;52.298;9.056;2024-03-17T00:49:53;6.90;96.00
47590;DHT22;33316;52.298;9.056;2024-03-17T00:52:19;6.90;96.00
47590;DHT22;33316;52.298;9.056;2024-03-17T00:54:47;6.90;96.00
47590;DHT22;33316;52.298;9.056;2024-03-17T00:57:13;6.90;96.10
47590;DHT22;33316;52.298;9.056;2024-03-17T00:59:42;6.80;96.10
47590;DHT22;33316;52.298;9.056;2024-03-17T01:02:10;6.80;96.10
47590;DHT22;33316;52.298;9.056;2024-03-17T01:04:39;6.80;96.20
47590;DHT22;33316;52.298;9.056;2024-03-17T01:07:05;6.80;96.20
47590;DHT22;33316;52.298;9.056;2024-03-17T01:09:33;6.80;96.20
47590;DHT22;33316;52.298;9.056;2024-03-17T01:11:59;6.80;96.20
47590;DHT22;33316;52.298;9.056;2024-03-17T01:14:27;6.70;96.20
47590;DHT22;33316;52.298;9.056;2024-03-17T01:16:55;6.70;96.20
47590;DHT22;33316;52.298;9.056;2024-03-17T01:19:23;6.70;96.20
47590;DHT22;33316;52.298;9.056;2024-03-17T01:21:50;6.60;96.20
47590;DHT22;33316;52.298;9.056;2024-03-17T01:24:18;6.60;96.20
47590;DHT22;33316;52.298;9.056;2024-03-17T01:26:44;6.60;96.40
47590;DHT22;33316;52.298;9.056;2024-03-17T01:29:12;6.50;96.40
47590;DHT22;33316;52.298;9.056;2024-03-17T01:31:39;6.50;96.50
47590;DHT22;33316;52.298;9.056;2024-03-17T01:34:08;6.50;96.50
47590;DHT22;33316;52.298;9.056;2024-03-17T01:36:35;6.50;96.60
47590;DHT22;33316;52.298;9.056;2024-03-17T01:39:02;6.50;96.60
47590;DHT22;33316;52.298;9.056;2024-03-17T01:41:31;6.50;96.60
47590;DHT22;33316;52.298;9.056;2024-03-17T01:43:58;6.40;96.60
47590;DHT22;33316;52.298;9.056;2024-03-17T01:46:26;6.40;96.60
47590;DHT22;33316;52.298;9.056;2024-03-17T01:48:54;6.40;96.60
47590;DHT22;33316;52.298;9.056;2024-03-17T01:51:23;6.40;96.70
47590;DHT22;33316;52.298;9.056;2024-03-17T01:53:50;6.30;96.70
47590;DHT22;33316;52.298;9.056;2024-03-17T01:56:19;6.30;96.70
47590;DHT22;33316;52.298;9.056;2024-03-17T01:58:46;6.30;96.70
47590;DHT22;33316;52.298;9.056;2024-03-17T02:01:14;6.30;96.70
47590;DHT22;33316;52.298;9.056;2024-03-17T02:03:41;6.20;96.70
47590;DHT22;33316;52.298;9.056;2024-03-17T02:06:08;6.20;96.70
47590;DHT22;33316;52.298;9.056;2024-03-17T02:08:51;6.20;96.70
47590;DHT22;33316;52.298;9.056;2024-03-17T02:11:25;6.20;96.70
47590;DHT22;33316;52.298;9.056;2024-03-17T02:13:52;6.10;96.70
47590;DHT22;33316;52.298;9.056;2024-03-17T02:16:20;6.10;96.70
47590;DHT22;33316;52.298;9.056;2024-03-17T02:18:46;6.10;96.70
47590;DHT22;33316;52.298;9.056;2024-03-17T02:21:13;6.10;96.70
47590;DHT22;33316;52.298;9.056;2024-03-17T02:23:42;6.00;96.70
47590;DHT22;33316;52.298;9.056;2024-03-17T02:26:09;6.00;96.70
47590;DHT22;33316;52.298;9.056;2024-03-17T02:28:40;6.00;96.70
47590;DHT22;33316;52.298;9.056;2024-03-17T02:31:08;6.00;96.80
47590;DHT22;33316;52.298;9.056;2024-03-17T02:33:35;5.90;96.90
47590;DHT22;33316;52.298;9.056;2024-03-17T02:36:03;5.90;96.90
47590;DHT22;33316;52.298;9.056;2024-03-17T02:38:30;5.90;96.90
47590;DHT22;33316;52.298;9.056;2024-03-17T02:41:16;5.90;96.80
47590;DHT22;33316;52.298;9.056;2024-03-17T02:43:44;5.80;96.90
47590;DHT22;33316;52.298;9.056;2024-03-17T02:46:12;5.80;96.90
47590;DHT22;33316;52.298;9.056;2024-03-17T02:48:40;5.80;96.90
47590;DHT22;33316;52.298;9.056;2024-03-17T02:51:11;5.70;96.90
47590;DHT22;33316;52.298;9.056;2024-03-17T02:53:41;5.70;97.00
47590;DHT22;33316;52.298;9.056;2024-03-17T02:56:08;5.60;97.00
47590;DHT22;33316;52.298;9.056;2024-03-17T02:58:39;5.60;97.00
47590;DHT22;33316;52.298;9.056;2024-03-17T03:01:07;5.60;97.00
47590;DHT22;33316;52.298;9.056;2024-03-17T03:03:35;5.60;97.00
47590;DHT22;33316;52.298;9.056;2024-03-17T03:06:04;5.50;97.00
47590;DHT22;33316;52.298;9.056;2024-03-17T03:08:35;5.50;97.10
47590;DHT22;33316;52.298;9.056;2024-03-17T03:11:05;5.50;97.10
47590;DHT22;33316;52.298;9.056;2024-03-17T03:13:33;5.50;97.20
47590;DHT22;33316;52.298;9.056;2024-03-17T03:16:02;5.50;97.20
47590;DHT22;33316;52.298;9.056;2024-03-17T03:18:29;5.40;97.20
47590;DHT22;33316;52.298;9.056;2024-03-17T03:20:56;5.40;97.30
47590;DHT22;33316;52.298;9.056;2024-03-17T03:23:24;5.40;97.30
47590;DHT22;33316;52.298;9.056;2024-03-17T03:25:55;5.40;97.30
47590;DHT22;33316;52.298;9.056;2024-03-17T03:28:24;5.40;97.30
47590;DHT22;33316;52.298;9.056;2024-03-17T03:30:51;5.40;97.30
47590;DHT22;33316;52.298;9.056;2024-03-17T03:33:21;5.30;97.30
47590;DHT22;33316;52.298;9.056;2024-03-17T03:35:48;5.30;97.30
47590;DHT22;33316;52.298;9.056;2024-03-17T03:38:17;5.30;97.30
47590;DHT22;33316;52.298;9.056;2024-03-17T03:40:45;5.30;97.30
47590;DHT22;33316;52.298;9.056;2024-03-17T03:43:14;5.30;97.30
47590;DHT22;33316;52.298;9.056;2024-03-17T03:45:41;5.20;97.40
47590;DHT22;33316;52.298;9.056;2024-03-17T03:48:08;5.20;97.40
47590;DHT22;33316;52.298;9.056;2024-03-17T03:50:37;5.20;97.40
47590;DHT22;33316;52.298;9.056;2024-03-17T03:53:04;5.20;97.40
47590;DHT22;33316;52.298;9.056;2024-03-17T03:55:32;5.20;97.40
47590;DHT22;33316;52.298;9.056;2024-03-17T03:57:59;5.10;97.40
47590;DHT22;33316;52.298;9.056;2024-03-17T04:00:29;5.10;97.50
47590;DHT22;33316;52.298;9.056;2024-03-17T04:02:58;5.10;97.50
47590;DHT22;33316;52.298;9.056;2024-03-17T04:05:27;5.10;97.40
47590;DHT22;33316;52.298;9.056;2024-03-17T04:07:56;5.10;97.40
47590;DHT22;33316;52.298;9.056;2024-03-17T04:10:24;5.00;97.40
47590;DHT22;33316;52.298;9.056;2024-03-17T04:12:51;5.00;97.50
47590;DHT22;33316;52.298;9.056;2024-03-17T04:15:19;5.00;97.50
47590;DHT22;33316;52.298;9.056;2024-03-17T04:17:47;5.00;97.50
47590;DHT22;33316;52.298;9.056;2024-03-17T04:20:14;5.00;97.50
47590;DHT22;33316;52.298;9.056;2024-03-17T04:22:42;5.00;97.50
47590;DHT22;33316;52.298;9.056;2024-03-17T04:25:11;4.90;97.50
47590;DHT22;33316;52.298;9.056;2024-03-17T04:27:40;4.90;97.60
47590;DHT22;33316;52.298;9.056;2024-03-17T04:30:09;4.90;97.60
47590;DHT22;33316;52.298;9.056;2024-03-17T04:32:37;4.90;97.70
47590;DHT22;33316;52.298;9.056;2024-03-17T04:35:05;4.90;97.70
47590;DHT22;33316;52.298;9.056;2024-03-17T04:37:34;4.90;97.80
47590;DHT22;33316;52.298;9.056;2024-03-17T04:40:06;4.90;97.80
47590;DHT22;33316;52.298;9.056;2024-03-17T04:42:36;4.90;97.70
47590;DHT22;33316;52.298;9.056;2024-03-17T04:45:07;4.80;97.70
47590;DHT22;33316;52.298;9.056;2024-03-17T04:47:36;4.80;97.80
47590;DHT22;33316;52.298;9.056;2024-03-17T04:50:04;4.80;98.00
47590;DHT22;33316;52.298;9.056;2024-03-17T04:52:32;4.80;98.10
47590;DHT22;33316;52.298;9.056;2024-03-17T04:54:59;4.80;98.20
47590;DHT22;33316;52.298;9.056;2024-03-17T04:57:27;4.80;98.20
47590;DHT22;33316;52.298;9.056;2024-03-17T04:59:55;4.90;98.30
47590;DHT22;33316;52.298;9.056;2024-03-17T05:02:23;4.90;98.40
47590;DHT22;33316;52.298;9.056;2024-03-17T05:04:50;4.90;98.40
47590;DHT22;33316;52.298;9.056;2024-03-17T05:07:17;4.90;98.50
47590;DHT22;33316;52.298;9.056;2024-03-17T05:09:45;4.90;98.50
47590;DHT22;33316;52.298;9.056;2024-03-17T05:12:12;4.90;98.50
47590;DHT22;33316;52.298;9.056;2024-03-17T05:14:39;4.90;98.50
47590;DHT22;33316;52.298;9.056;2024-03-17T05:17:08;4.80;98.50
47590;DHT22;33316;52.298;9.056;2024-03-17T05:19:36;4.80;98.60
47590;DHT22;33316;52.298;9.056;2024-03-17T05:22:03;4.90;98.60
47590;DHT22;33316;52.298;9.056;2024-03-17T05:24:30;4.80;98.60
47590;DHT22;33316;52.298;9.056;2024-03-17T05:26:58;4.80;98.60
47590;DHT22;33316;52.298;9.056;2024-03-17T05:29:25;4.80;98.60
47590;DHT22;33316;52.298;9.056;2024-03-17T05:31:52;4.80;98.60
47590;DHT22;33316;52.298;9.056;2024-03-17T05:34:21;4.80;98.70
47590;DHT22;33316;52.298;9.056;2024-03-17T05:36:50;4.80;98.70
47590;DHT22;33316;52.298;9.056;2024-03-17T05:39:18;4.80;98.70
47590;DHT22;33316;52.298;9.056;2024-03-17T05:41:46;4.70;98.60
47590;DHT22;33316;52.298;9.056;2024-03-17T05:44:14;4.70;98.60
47590;DHT22;33316;52.298;9.056;2024-03-17T05:46:42;4.80;98.70
47590;DHT22;33316;52.298;9.056;2024-03-17T05:49:09;4.70;98.70
47590;DHT22;33316;52.298;9.056;2024-03-17T05:51:38;4.70;98.80
47590;DHT22;33316;52.298;9.056;2024-03-17T05:54:06;4.70;98.80
47590;DHT22;33316;52.298;9.056;2024-03-17T05:56:33;4.70;98.80
47590;DHT22;33316;52.298;9.056;2024-03-17T05:59:01;4.80;98.90
47590;DHT22;33316;52.298;9.056;2024-03-17T06:01:28;4.80;98.90
47590;DHT22;33316;52.298;9.056;2024-03-17T06:03:56;4.80;99.30
47590;DHT22;33316;52.298;9.056;2024-03-17T06:06:23;4.80;99.00
47590;DHT22;33316;52.298;9.056;2024-03-17T06:08:52;4.70;99.00
47590;DHT22;33316;52.298;9.056;2024-03-17T06:11:19;4.70;99.10
47590;DHT22;33316;52.298;9.056;2024-03-17T06:13:46;4.70;99.10
47590;DHT22;33316;52.298;9.056;2024-03-17T06:16:13;4.80;99.30
47590;DHT22;33316;52.298;9.056;2024-03-17T06:18:41;4.80;99.40
47590;DHT22;33316;52.298;9.056;2024-03-17T06:21:08;4.80;99.40
47590;DHT22;33316;52.298;9.056;2024-03-17T06:23:38;4.80;99.50
47590;DHT22;33316;52.298;9.056;2024-03-17T06:26:12;4.80;99.60
47590;DHT22;33316;52.298;9.056;2024-03-17T06:28:40;4.90;99.80
47590;DHT22;33316;52.298;9.056;2024-03-17T06:31:09;4.90;99.80
47590;DHT22;33316;52.298;9.056;2024-03-17T06:33:36;4.90;99.90
47590;DHT22;33316;52.298;9.056;2024-03-17T06:36:04;5.00;99.90
47590;DHT22;33316;52.298;9.056;2024-03-17T06:38:31;5.10;99.90
47590;DHT22;33316;52.298;9.056;2024-03-17T06:40:59;5.10;99.90
47590;DHT22;33316;52.298;9.056;2024-03-17T06:43:27;5.20;99.90
47590;DHT22;33316;52.298;9.056;2024-03-17T06:45:56;5.20;99.90
47590;DHT22;33316;52.298;9.056;2024-03-17T06:48:24;5.30;99.90
47590;DHT22;33316;52.298;9.056;2024-03-17T06:50:53;5.40;99.90
47590;DHT22;33316;52.298;9.056;2024-03-17T06:53:21;5.50;99.90
47590;DHT22;33316;52.298;9.056;2024-03-17T06:55:53;5.70;99.90
47590;DHT22;33316;52.298;9.056;2024-03-17T06:58:21;5.80;99.90
47590;DHT22;33316;52.298;9.056;2024-03-17T07:00:54;5.90;99.90
47590;DHT22;33316;52.298;9.056;2024-03-17T07:03:23;6.00;99.90
47590;DHT22;33316;52.298;9.056;2024-03-17T07:05:52;6.10;99.90
47590;DHT22;33316;52.298;9.056;2024-03-17T07:08:20;6.20;99.90
47590;DHT22;33316;52.298;9.056;2024-03-17T07:10:57;6.30;99.90
47590;DHT22;33316;52.298;9.056;2024-03-17T07:13:25;6.40;99.90
47590;DHT22;33316;52.298;9.056;2024-03-17T07:15:54;6.50;99.90
47590;DHT22;33316;52.298;9.056;2024-03-17T07:18:22;6.60;99.90
47590;DHT22;33316;52.298;9.056;2024-03-17T07:20:49;6.70;99.90
47590;DHT22;33316;52.298;9.056;2024-03-17T07:23:16;6.80;99.90
47590;DHT22;33316;52.298;9.056;2024-03-17T07:25:52;6.90;99.90
47590;DHT22;33316;52.298;9.056;2024-03-17T07:28:21;7.00;99.90
47590;DHT22;33316;52.298;9.056;2024-03-17T07:30:49;7.10;99.90
47590;DHT22;33316;52.298;9.056;2024-03-17T07:33:19;7.30;99.90
47590;DHT22;33316;52.298;9.056;2024-03-17T07:35:51;7.40;99.90
47590;DHT22;33316;52.298;9.056;2024-03-17T07:38:19;7.40;99.90
47590;DHT22;33316;52.298;9.056;2024-03-17T07:40:56;7.50;99.90
47590;DHT22;33316;52.298;9.056;2024-03-17T07:43:25;7.50;99.90
47590;DHT22;33316;52.298;9.056;2024-03-17T07:45:59;7.50;99.90
47590;DHT22;33316;52.298;9.056;2024-03-17T07:48:28;7.60;99.90
47590;DHT22;33316;52.298;9.056;2024-03-17T07:50:57;7.70;99.90
47590;DHT22;33316;52.298;9.056;2024-03-17T07:53:25;7.80;99.90
47590;DHT22;33316;52.298;9.056;2024-03-17T07:56:00;7.90;99.90
47590;DHT22;33316;52.298;9.056;2024-03-17T07:58:28;8.00;99.90
47590;DHT22;33316;52.298;9.056;2024-03-17T08:00:57;8.20;99.90
47590;DHT22;33316;52.298;9.056;2024-03-17T08:03:30;8.30;99.90
47590;DHT22;33316;52.298;9.056;2024-03-17T08:05:59;8.40;99.90
47590;DHT22;33316;52.298;9.056;2024-03-17T08:08:28;8.50;99.80
47590;DHT22;33316;52.298;9.056;2024-03-17T08:10:55;8.50;99.60
47590;DHT22;33316;52.298;9.056;2024-03-17T08:13:23;8.60;99.50
47590;DHT22;33316;52.298;9.056;2024-03-17T08:15:56;8.70;99.40
47590;DHT22;33316;52.298;9.056;2024-03-17T08:18:24;8.70;99.30
47590;DHT22;33316;52.298;9.056;2024-03-17T08:20:53;8.80;99.30
47590;DHT22;33316;52.298;9.056;2024-03-17T08:23:21;8.90;99.20
47590;DHT22;33316;52.298;9.056;2024-03-17T08:25:52;8.90;99.10
47590;DHT22;33316;52.298;9.056;2024-03-17T08:28:21;9.00;98.90
47590;DHT22;33316;52.298;9.056;2024-03-17T08:30:52;9.00;98.80
47590;DHT22;33316;52.298;9.056;2024-03-17T08:33:20;9.00;98.80
47590;DHT22;33316;52.298;9.056;2024-03-17T08:35:57;9.00;98.70
47590;DHT22;33316;52.298;9.056;2024-03-17T08:38:25;9.00;98.60
47590;DHT22;33316;52.298;9.056;2024-03-17T08:40:54;9.10;98.60
47590;DHT22;33316;52.298;9.056;2024-03-17T08:43:22;9.10;98.80
47590;DHT22;33316;52.298;9.056;2024-03-17T08:45:56;9.20;98.60
47590;DHT22;33316;52.298;9.056;2024-03-17T08:48:31;9.20;98.50
47590;DHT22;33316;52.298;9.056;2024-03-17T08:51:01;9.20;98.40
47590;DHT22;33316;52.298;9.056;2024-03-17T08:53:29;9.30;98.40
47590;DHT22;33316;52.298;9.056;2024-03-17T08:55:58;9.30;98.40
47590;DHT22;33316;52.298;9.056;2024-03-17T08:58:26;9.40;98.50
47590;DHT22;33316;52.298;9.056;2024-03-17T09:00:53;9.50;98.40
47590;DHT22;33316;52.298;9.056;2024-03-17T09:03:22;9.60;98.10
47590;DHT22;33316;52.298;9.056;2024-03-17T09:05:51;9.70;98.00
47590;DHT22;33316;52.298;9.056;2024-03-17T09:08:23;9.80;98.00
47590;DHT22;33316;52.298;9.056;2024-03-17T09:10:52;9.90;98.10
47590;DHT22;33316;52.298;9.056;2024-03-17T09:13:22;10.00;97.80
47590;DHT22;33316;52.298;9.056;2024-03-17T09:15:53;10.10;97.80
47590;DHT22;33316;52.298;9.056;2024-03-17T09:18:21;10.20;97.50
47590;DHT22;33316;52.298;9.056;2024-03-17T09:20:57;10.30;97.30
47590;DHT22;33316;52.298;9.056;2024-03-17T09:23:27;10.40;96.90
47590;DHT22;33316;52.298;9.056;2024-03-17T09:25:57;10.50;96.50
47590;DHT22;33316;52.298;9.056;2024-03-17T09:28:25;10.60;95.80
47590;DHT22;33316;52.298;9.056;2024-03-17T09:30:56;10.60;95.20
47590;DHT22;33316;52.298;9.056;2024-03-17T09:33:25;10.60;95.10
47590;DHT22;33316;52.298;9.056;2024-03-17T09:35:54;10.70;95.00
47590;DHT22;33316;52.298;9.056;2024-03-17T09:38:22;10.70;95.10
47590;DHT22;33316;52.298;9.056;2024-03-17T09:40:51;10.70;94.60
47590;DHT22;33316;52.298;9.056;2024-03-17T09:43:21;10.90;95.00
47590;DHT22;33316;52.298;9.056;2024-03-17T09:45:49;11.00;94.80
47590;DHT22;33316;52.298;9.056;2024-03-17T09:48:17;11.00;94.30
47590;DHT22;33316;52.298;9.056;2024-03-17T09:50:51;11.10;94.00
47590;DHT22;33316;52.298;9.056;2024-03-17T09:53:23;11.20;93.60
47590;DHT22;33316;52.298;9.056;2024-03-17T09:55:57;11.20;93.30
47590;DHT22;33316;52.298;9.056;2024-03-17T09:58:25;11.20;93.00
47590;DHT22;33316;52.298;9.056;2024-03-17T10:00:52;11.30;92.90
47590;DHT22;33316;52.298;9.056;2024-03-17T10:03:40;11.30;92.90
47590;DHT22;33316;52.298;9.056;2024-03-17T10:06:09;11.30;92.40
47590;DHT22;33316;52.298;9.056;2024-03-17T10:08:43;11.40;92.20
47590;DHT22;33316;52.298;9.056;2024-03-17T10:11:12;11.40;92.10
47590;DHT22;33316;52.298;9.056;2024-03-17T10:13:42;11.50;92.30
47590;DHT22;33316;52.298;9.056;2024-03-17T10:16:23;11.60;92.10
47590;DHT22;33316;52.298;9.056;2024-03-17T10:19:05;11.70;91.50
47590;DHT22;33316;52.298;9.056;2024-03-17T10:21:33;11.70;91.40
47590;DHT22;33316;52.298;9.056;2024-03-17T10:24:10;11.70;91.10
47590;DHT22;33316;52.298;9.056;2024-03-17T10:26:48;11.60;90.50
47590;DHT22;33316;52.298;9.056;2024-03-17T10:29:21;11.60;90.30
47590;DHT22;33316;52.298;9.056;2024-03-17T10:31:51;11.60;90.10
47590;DHT22;33316;52.298;9.056;2024-03-17T10:34:19;11.60;90.60
47590;DHT22;33316;52.298;9.056;2024-03-17T10:36:50;11.70;90.80
47590;DHT22;33316;52.298;9.056;2024-03-17T10:39:23;11.70;90.50
47590;DHT22;33316;52.298;9.056;2024-03-17T10:41:59;11.70;90.00
47590;DHT22;33316;52.298;9.056;2024-03-17T10:44:26;11.70;89.80
47590;DHT22;33316;52.298;9.056;2024-03-17T10:46:56;11.70;89.00
47590;DHT22;33316;52.298;9.056;2024-03-17T10:49:28;11.70;88.40
47590;DHT22;33316;52.298;9.056;2024-03-17T10:51:58;11.60;88.20
47590;DHT22;33316;52.298;9.056;2024-03-17T10:54:26;11.60;88.20
47590;DHT22;33316;52.298;9.056;2024-03-17T10:56:57;11.60;87.60
47590;DHT22;33316;52.298;9.056;2024-03-17T10:59:33;11.50;87.20
47590;DHT22;33316;52.298;9.056;2024-03-17T11:02:20;11.50;87.40
47590;DHT22;33316;52.298;9.056;2024-03-17T11:04:51;11.50;86.90
47590;DHT22;33316;52.298;9.056;2024-03-17T11:07:21;11.50;86.90
47590;DHT22;33316;52.298;9.056;2024-03-17T11:09:50;11.50;87.30
47590;DHT22;33316;52.298;9.056;2024-03-17T11:12:41;11.60;87.80
47590;DHT22;33316;52.298;9.056;2024-03-17T11:15:40;11.70;88.00
47590;DHT22;33316;52.298;9.056;2024-03-17T11:18:42;11.80;86.50
47590;DHT22;33316;52.298;9.056;2024-03-17T11:21:22;11.80;86.20
47590;DHT22;33316;52.298;9.056;2024-03-17T11:23:56;11.90;86.60
47590;DHT22;33316;52.298;9.056;2024-03-17T11:26:27;11.90;86.70
47590;DHT22;33316;52.298;9.056;2024-03-17T11:28:57;11.90;85.80
47590;DHT22;33316;52.298;9.056;2024-03-17T11:31:38;12.00;85.80
47590;DHT22;33316;52.298;9.056;2024-03-17T11:36:54;12.10;84.60
47590;DHT22;33316;52.298;9.056;2024-03-17T11:39:46;12.10;85.00
47590;DHT22;33316;52.298;9.056;2024-03-17T11:42:16;12.30;85.30
47590;DHT22;33316;52.298;9.056;2024-03-17T11:44:55;12.30;84.80
47590;DHT22;33316;52.298;9.056;2024-03-17T11:47:22;12.40;84.20
47590;DHT22;33316;52.298;9.056;2024-03-17T11:49:51;12.50;83.90
47590;DHT22;33316;52.298;9.056;2024-03-17T11:52:19;12.50;83.50
47590;DHT22;33316;52.298;9.056;2024-03-17T11:54:47;12.50;83.20
47590;DHT22;33316;52.298;9.056;2024-03-17T11:57:20;12.60;82.60
47590;DHT22;33316;52.298;9.056;2024-03-17T11:59:51;12.60;82.40
47590;DHT22;33316;52.298;9.056;2024-03-17T12:02:20;12.70;82.80
47590;DHT22;33316;52.298;9.056;2024-03-17T12:04:48;12.70;82.90
47590;DHT22;33316;52.298;9.056;2024-03-17T12:07:16;12.80;83.10
47590;DHT22;33316;52.298;9.056;2024-03-17T12:09:44;12.80;82.40
47590;DHT22;33316;52.298;9.056;2024-03-17T12:12:16;12.80;82.40
47590;DHT22;33316;52.298;9.056;2024-03-17T12:14:44;12.80;82.80
47590;DHT22;33316;52.298;9.056;2024-03-17T12:17:13;12.90;82.20
47590;DHT22;33316;52.298;9.056;2024-03-17T12:19:43;12.90;82.60
47590;DHT22;33316;52.298;9.056;2024-03-17T12:22:16;13.00;82.60
47590;DHT22;33316;52.298;9.056;2024-03-17T12:24:45;13.10;82.50
47590;DHT22;33316;52.298;9.056;2024-03-17T12:27:18;13.10;83.10
47590;DHT22;33316;52.298;9.056;2024-03-17T12:29:46;13.10;82.10
47590;DHT22;33316;52.298;9.056;2024-03-17T12:32:16;13.20;81.40
47590;DHT22;33316;52.298;9.056;2024-03-17T12:34:45;13.20;80.50
47590;DHT22;33316;52.298;9.056;2024-03-17T12:37:16;13.30;80.50
47590;DHT22;33316;52.298;9.056;2024-03-17T12:39:45;13.30;79.90
47590;DHT22;33316;52.298;9.056;2024-03-17T12:42:12;13.30;80.30
47590;DHT22;33316;52.298;9.056;2024-03-17T12:44:47;13.40;79.30
47590;DHT22;33316;52.298;9.056;2024-03-17T12:47:17;13.30;78.20
47590;DHT22;33316;52.298;9.056;2024-03-17T12:49:45;13.30;77.20
47590;DHT22;33316;52.298;9.056;2024-03-17T12:52:18;13.20;76.90
47590;DHT22;33316;52.298;9.056;2024-03-17T12:54:56;13.20;76.30
47590;DHT22;33316;52.298;9.056;2024-03-17T12:57:43;13.20;77.90
47590;DHT22;33316;52.298;9.056;2024-03-17T13:00:27;13.20;76.60
47590;DHT22;33316;52.298;9.056;2024-03-17T13:03:03;13.20;76.10
47590;DHT22;33316;52.298;9.056;2024-03-17T13:05:31;13.20;75.00
47590;DHT22;33316;52.298;9.056;2024-03-17T13:07:59;13.20;75.30
47590;DHT22;33316;52.298;9.056;2024-03-17T13:10:29;13.20;75.50
47590;DHT22;33316;52.298;9.056;2024-03-17T13:13:01;13.20;76.00
47590;DHT22;33316;52.298;9.056;2024-03-17T13:15:30;13.20;75.60
47590;DHT22;33316;52.298;9.056;2024-03-17T13:17:58;13.30;76.10
47590;DHT22;33316;52.298;9.056;2024-03-17T13:20:27;13.30;75.90
47590;DHT22;33316;52.298;9.056;2024-03-17T13:22:55;13.30;76.20
47590;DHT22;33316;52.298;9.056;2024-03-17T13:25:25;13.40;76.60
47590;DHT22;33316;52.298;9.056;2024-03-17T13:27:56;13.40;76.40
47590;DHT22;33316;52.298;9.056;2024-03-17T13:30:24;13.40;76.10
47590;DHT22;33316;52.298;9.056;2024-03-17T13:32:53;13.40;75.60
47590;DHT22;33316;52.298;9.056;2024-03-17T13:35:24;13.40;75.70
47590;DHT22;33316;52.298;9.056;2024-03-17T13:37:54;13.40;75.70
47590;DHT22;33316;52.298;9.056;2024-03-17T13:40:22;13.40;75.30
47590;DHT22;33316;52.298;9.056;2024-03-17T13:42:50;13.40;74.90
47590;DHT22;33316;52.298;9.056;2024-03-17T13:45:19;13.40;75.40
47590;DHT22;33316;52.298;9.056;2024-03-17T13:47:49;13.50;76.00
47590;DHT22;33316;52.298;9.056;2024-03-17T13:50:22;13.50;75.90
47590;DHT22;33316;52.298;9.056;2024-03-17T13:52:49;13.50;75.60
47590;DHT22;33316;52.298;9.056;2024-03-17T13:55:22;13.50;76.20
47590;DHT22;33316;52.298;9.056;2024-03-17T13:57:50;13.50;75.40
47590;DHT22;33316;52.298;9.056;2024-03-17T14:00:21;13.60;74.80
47590;DHT22;33316;52.298;9.056;2024-03-17T14:02:51;13.50;74.90
47590;DHT22;33316;52.298;9.056;2024-03-17T14:05:21;13.60;75.40
47590;DHT22;33316;52.298;9.056;2024-03-17T14:07:49;13.60;75.90
47590;DHT22;33316;52.298;9.056;2024-03-17T14:10:19;13.70;76.40
47590;DHT22;33316;52.298;9.056;2024-03-17T14:12:46;13.70;76.00
47590;DHT22;33316;52.298;9.056;2024-03-17T14:15:15;13.70;75.80
47590;DHT22;33316;52.298;9.056;2024-03-17T14:17:44;13.70;75.50
47590;DHT22;33316;52.298;9.056;2024-03-17T14:20:13;13.80;75.60
47590;DHT22;33316;52.298;9.056;2024-03-17T14:22:44;13.80;75.00
47590;DHT22;33316;52.298;9.056;2024-03-17T14:25:16;13.70;74.70
47590;DHT22;33316;52.298;9.056;2024-03-17T14:27:45;13.70;74.50
47590;DHT22;33316;52.298;9.056;2024-03-17T14:30:16;13.70;74.20
47590;DHT22;33316;52.298;9.056;2024-03-17T14:32:43;13.60;74.20
47590;DHT22;33316;52.298;9.056;2024-03-17T14:35:13;13.60;74.10
47590;DHT22;33316;52.298;9.056;2024-03-17T14:37:41;13.50;73.30
47590;DHT22;33316;52.298;9.056;2024-03-17T14:40:14;13.50;73.30
47590;DHT22;33316;52.298;9.056;2024-03-17T14:42:49;13.50;73.60
47590;DHT22;33316;52.298;9.056;2024-03-17T14:45:17;13.50;73.40
47590;DHT22;33316;52.298;9.056;2024-03-17T14:47:45;13.50;73.30
47590;DHT22;33316;52.298;9.056;2024-03-17T14:50:12;13.50;73.10
47590;DHT22;33316;52.298;9.056;2024-03-17T14:52:40;13.50;73.50
47590;DHT22;33316;52.298;9.056;2024-03-17T14:55:08;13.50;73.40
47590;DHT22;33316;52.298;9.056;2024-03-17T14:57:37;13.50;73.30
47590;DHT22;33316;52.298;9.056;2024-03-17T15:00:11;13.50;73.30
47590;DHT22;33316;52.298;9.056;2024-03-17T15:02:50;13.40;72.20
47590;DHT22;33316;52.298;9.056;2024-03-17T15:05:18;13.40;72.90
47590;DHT22;33316;52.298;9.056;2024-03-17T15:07:45;13.40;72.50
47590;DHT22;33316;52.298;9.056;2024-03-17T15:10:14;13.40;72.30
47590;DHT22;33316;52.298;9.056;2024-03-17T15:12:42;13.30;71.90
47590;DHT22;33316;52.298;9.056;2024-03-17T15:15:12;13.30;72.00
47590;DHT22;33316;52.298;9.056;2024-03-17T15:17:39;13.30;72.60
47590;DHT22;33316;52.298;9.056;2024-03-17T15:20:07;13.30;72.60
47590;DHT22;33316;52.298;9.056;2024-03-17T15:22:42;13.20;72.80
47590;DHT22;33316;52.298;9.056;2024-03-17T15:25:11;13.30;73.00
47590;DHT22;33316;52.298;9.056;2024-03-17T15:27:40;13.20;73.00
47590;DHT22;33316;52.298;9.056;2024-03-17T15:30:15;13.20;72.60
47590;DHT22;33316;52.298;9.056;2024-03-17T15:32:44;13.20;72.10
47590;DHT22;33316;52.298;9.056;2024-03-17T15:35:11;13.20;72.20
47590;DHT22;33316;52.298;9.056;2024-03-17T15:37:39;13.20;72.40
47590;DHT22;33316;52.298;9.056;2024-03-17T15:40:08;13.10;72.90
47590;DHT22;33316;52.298;9.056;2024-03-17T15:42:43;13.10;73.40
47590;DHT22;33316;52.298;9.056;2024-03-17T15:45:13;13.10;74.40
47590;DHT22;33316;52.298;9.056;2024-03-17T15:47:40;13.10;73.70
47590;DHT22;33316;52.298;9.056;2024-03-17T15:50:08;13.10;73.40
47590;DHT22;33316;52.298;9.056;2024-03-17T15:52:35;13.00;73.40
47590;DHT22;33316;52.298;9.056;2024-03-17T15:55:03;13.00;73.40
47590;DHT22;33316;52.298;9.056;2024-03-17T15:57:31;13.00;73.90